sensor_id;sensor_type;location;lat;lon;timestamp;P1;durP1;ratioP1;P2;durP2;ratioP2
69779;SDS011;57052;55.602;38.096;2023-05-29T00:02:08;7.88;;;3.42;;
69779;SDS011;57052;55.602;38.096;2023-05-29T00:04:34;7.85;;;3.45;;
69779;SDS011;57052;55.602;38.096;2023-05-29T00:07:01;8.02;;;3.38;;
69779;SDS011;57052;55.602;38.096;2023-05-29T00:09:26;9.88;;;3.22;;
69779;SDS011;57052;55.602;38.096;2023-05-29T00:11:53;11.70;;;3.30;;
69779;SDS011;57052;55.602;38.096;2023-05-29T00:14:19;6.90;;;3.22;;
69779;SDS011;57052;55.602;38.096;2023-05-29T00:16:45;8.27;;;3.33;;
69779;SDS011;57052;55.602;38.096;2023-05-29T00:19:12;9.60;;;3.50;;
69779;SDS011;57052;55.602;38.096;2023-05-29T00:21:39;7.72;;;3.15;;
69779;SDS011;57052;55.602;38.096;2023-05-29T00:24:05;9.32;;;3.60;;
69779;SDS011;57052;55.602;38.096;2023-05-29T00:26:31;7.68;;;3.45;;
69779;SDS011;57052;55.602;38.096;2023-05-29T00:28:56;8.48;;;3.67;;
69779;SDS011;57052;55.602;38.096;2023-05-29T00:31:22;14.18;;;3.47;;
69779;SDS011;57052;55.602;38.096;2023-05-29T00:33:49;8.10;;;2.95;;
69779;SDS011;57052;55.602;38.096;2023-05-29T00:36:15;10.55;;;3.67;;
69779;SDS011;57052;55.602;38.096;2023-05-29T00:38:41;10.18;;;3.55;;
69779;SDS011;57052;55.602;38.096;2023-05-29T00:41:07;12.57;;;3.83;;
69779;SDS011;57052;55.602;38.096;2023-05-29T00:43:33;8.70;;;3.60;;
69779;SDS011;57052;55.602;38.096;2023-05-29T00:45:59;10.10;;;3.97;;
69779;SDS011;57052;55.602;38.096;2023-05-29T00:48:25;10.57;;;3.80;;
69779;SDS011;57052;55.602;38.096;2023-05-29T00:50:51;10.63;;;4.22;;
69779;SDS011;57052;55.602;38.096;2023-05-29T00:53:17;11.90;;;4.00;;
69779;SDS011;57052;55.602;38.096;2023-05-29T00:55:44;11.07;;;3.95;;
69779;SDS011;57052;55.602;38.096;2023-05-29T00:58:10;9.15;;;3.70;;
69779;SDS011;57052;55.602;38.096;2023-05-29T01:00:35;7.22;;;3.88;;
69779;SDS011;57052;55.602;38.096;2023-05-29T01:03:03;11.30;;;4.35;;
69779;SDS011;57052;55.602;38.096;2023-05-29T01:05:34;8.25;;;3.78;;
69779;SDS011;57052;55.602;38.096;2023-05-29T01:08:03;8.80;;;3.90;;
69779;SDS011;57052;55.602;38.096;2023-05-29T01:10:29;9.93;;;3.65;;
69779;SDS011;57052;55.602;38.096;2023-05-29T01:13:02;9.65;;;3.80;;
69779;SDS011;57052;55.602;38.096;2023-05-29T01:18:31;9.38;;;3.60;;
69779;SDS011;57052;55.602;38.096;2023-05-29T01:21:07;9.95;;;3.55;;
69779;SDS011;57052;55.602;38.096;2023-05-29T01:23:40;8.27;;;3.60;;
69779;SDS011;57052;55.602;38.096;2023-05-29T01:26:21;8.75;;;3.80;;
69779;SDS011;57052;55.602;38.096;2023-05-29T01:28:57;9.57;;;3.40;;
69779;SDS011;57052;55.602;38.096;2023-05-29T01:31:27;8.57;;;3.60;;
69779;SDS011;57052;55.602;38.096;2023-05-29T01:33:56;12.05;;;3.50;;
69779;SDS011;57052;55.602;38.096;2023-05-29T01:36:23;8.38;;;3.70;;
69779;SDS011;57052;55.602;38.096;2023-05-29T01:38:53;10.25;;;3.90;;
69779;SDS011;57052;55.602;38.096;2023-05-29T01:41:21;8.38;;;3.70;;
69779;SDS011;57052;55.602;38.096;2023-05-29T01:43:49;9.48;;;3.58;;
69779;SDS011;57052;55.602;38.096;2023-05-29T01:46:15;8.43;;;3.67;;
69779;SDS011;57052;55.602;38.096;2023-05-29T01:48:43;8.90;;;3.97;;
69779;SDS011;57052;55.602;38.096;2023-05-29T01:51:10;9.15;;;3.65;;
69779;SDS011;57052;55.602;38.096;2023-05-29T01:53:37;12.27;;;3.92;;
69779;SDS011;57052;55.602;38.096;2023-05-29T01:56:03;11.20;;;4.43;;
69779;SDS011;57052;55.602;38.096;2023-05-29T01:58:33;13.70;;;4.38;;
69779;SDS011;57052;55.602;38.096;2023-05-29T02:01:03;11.90;;;4.00;;
69779;SDS011;57052;55.602;38.096;2023-05-29T02:03:29;9.38;;;3.80;;
69779;SDS011;57052;55.602;38.096;2023-05-29T02:05:56;8.25;;;3.83;;
69779;SDS011;57052;55.602;38.096;2023-05-29T02:08:22;15.10;;;4.78;;
69779;SDS011;57052;55.602;38.096;2023-05-29T02:10:48;8.40;;;3.58;;
69779;SDS011;57052;55.602;38.096;2023-05-29T02:13:14;8.70;;;4.07;;
69779;SDS011;57052;55.602;38.096;2023-05-29T02:15:40;7.70;;;3.67;;
69779;SDS011;57052;55.602;38.096;2023-05-29T02:18:08;8.15;;;3.95;;
69779;SDS011;57052;55.602;38.096;2023-05-29T02:20:37;7.53;;;3.53;;
69779;SDS011;57052;55.602;38.096;2023-05-29T02:23:03;11.32;;;3.60;;
69779;SDS011;57052;55.602;38.096;2023-05-29T02:25:29;12.82;;;3.65;;
69779;SDS011;57052;55.602;38.096;2023-05-29T02:27:55;7.63;;;3.60;;
69779;SDS011;57052;55.602;38.096;2023-05-29T02:30:21;9.60;;;3.83;;
69779;SDS011;57052;55.602;38.096;2023-05-29T02:32:46;9.63;;;4.10;;
69779;SDS011;57052;55.602;38.096;2023-05-29T02:35:12;9.13;;;3.85;;
69779;SDS011;57052;55.602;38.096;2023-05-29T02:37:43;10.75;;;4.20;;
69779;SDS011;57052;55.602;38.096;2023-05-29T02:40:09;9.57;;;3.90;;
69779;SDS011;57052;55.602;38.096;2023-05-29T02:42:36;10.82;;;4.60;;
69779;SDS011;57052;55.602;38.096;2023-05-29T02:45:01;8.40;;;3.88;;
69779;SDS011;57052;55.602;38.096;2023-05-29T02:47:27;8.10;;;4.05;;
69779;SDS011;57052;55.602;38.096;2023-05-29T02:49:53;9.35;;;4.20;;
69779;SDS011;57052;55.602;38.096;2023-05-29T02:52:19;8.85;;;4.10;;
69779;SDS011;57052;55.602;38.096;2023-05-29T02:54:44;9.18;;;4.10;;
69779;SDS011;57052;55.602;38.096;2023-05-29T02:57:10;10.80;;;3.78;;
69779;SDS011;57052;55.602;38.096;2023-05-29T02:59:35;8.18;;;4.13;;
69779;SDS011;57052;55.602;38.096;2023-05-29T03:02:02;11.13;;;4.25;;
69779;SDS011;57052;55.602;38.096;2023-05-29T03:04:28;10.52;;;3.97;;
69779;SDS011;57052;55.602;38.096;2023-05-29T03:06:54;8.10;;;4.47;;
69779;SDS011;57052;55.602;38.096;2023-05-29T03:09:19;10.27;;;4.43;;
69779;SDS011;57052;55.602;38.096;2023-05-29T03:11:45;11.60;;;4.50;;
69779;SDS011;57052;55.602;38.096;2023-05-29T03:14:13;7.53;;;3.80;;
69779;SDS011;57052;55.602;38.096;2023-05-29T03:16:39;8.63;;;4.03;;
69779;SDS011;57052;55.602;38.096;2023-05-29T03:19:06;11.23;;;4.40;;
69779;SDS011;57052;55.602;38.096;2023-05-29T03:21:32;11.65;;;4.03;;
69779;SDS011;57052;55.602;38.096;2023-05-29T03:23:58;9.98;;;4.45;;
69779;SDS011;57052;55.602;38.096;2023-05-29T03:26:25;9.38;;;4.18;;
69779;SDS011;57052;55.602;38.096;2023-05-29T03:28:51;8.10;;;4.30;;
69779;SDS011;57052;55.602;38.096;2023-05-29T03:31:17;8.65;;;4.28;;
69779;SDS011;57052;55.602;38.096;2023-05-29T03:33:43;7.00;;;4.00;;
69779;SDS011;57052;55.602;38.096;2023-05-29T03:36:08;10.20;;;4.03;;
69779;SDS011;57052;55.602;38.096;2023-05-29T03:38:34;7.13;;;3.70;;
69779;SDS011;57052;55.602;38.096;2023-05-29T03:41:00;12.18;;;4.38;;
69779;SDS011;57052;55.602;38.096;2023-05-29T03:43:26;6.93;;;3.80;;
69779;SDS011;57052;55.602;38.096;2023-05-29T03:45:51;9.70;;;3.78;;
69779;SDS011;57052;55.602;38.096;2023-05-29T03:48:17;7.47;;;4.10;;
69779;SDS011;57052;55.602;38.096;2023-05-29T03:50:44;9.10;;;3.55;;
69779;SDS011;57052;55.602;38.096;2023-05-29T03:53:10;8.43;;;3.72;;
69779;SDS011;57052;55.602;38.096;2023-05-29T03:55:36;8.52;;;4.00;;
69779;SDS011;57052;55.602;38.096;2023-05-29T03:58:01;6.93;;;3.67;;
69779;SDS011;57052;55.602;38.096;2023-05-29T04:00:27;12.80;;;3.80;;
69779;SDS011;57052;55.602;38.096;2023-05-29T04:02:54;10.65;;;3.80;;
69779;SDS011;57052;55.602;38.096;2023-05-29T04:05:21;8.32;;;3.50;;
69779;SDS011;57052;55.602;38.096;2023-05-29T04:07:46;8.00;;;3.47;;
69779;SDS011;57052;55.602;38.096;2023-05-29T04:10:12;11.63;;;3.78;;
69779;SDS011;57052;55.602;38.096;2023-05-29T04:12:38;9.38;;;3.90;;
69779;SDS011;57052;55.602;38.096;2023-05-29T04:15:04;9.52;;;3.85;;
69779;SDS011;57052;55.602;38.096;2023-05-29T04:17:30;12.18;;;3.95;;
69779;SDS011;57052;55.602;38.096;2023-05-29T04:19:56;6.05;;;2.78;;
69779;SDS011;57052;55.602;38.096;2023-05-29T04:22:22;6.47;;;3.08;;
69779;SDS011;57052;55.602;38.096;2023-05-29T04:24:47;6.47;;;2.60;;
69779;SDS011;57052;55.602;38.096;2023-05-29T04:27:13;5.65;;;2.47;;
69779;SDS011;57052;55.602;38.096;2023-05-29T04:29:43;5.20;;;2.50;;
69779;SDS011;57052;55.602;38.096;2023-05-29T04:32:09;5.82;;;2.63;;
69779;SDS011;57052;55.602;38.096;2023-05-29T04:34:37;6.15;;;2.40;;
69779;SDS011;57052;55.602;38.096;2023-05-29T04:37:05;5.10;;;2.15;;
69779;SDS011;57052;55.602;38.096;2023-05-29T04:39:31;7.25;;;2.05;;
69779;SDS011;57052;55.602;38.096;2023-05-29T04:41:57;10.10;;;2.65;;
69779;SDS011;57052;55.602;38.096;2023-05-29T04:44:26;5.55;;;1.75;;
69779;SDS011;57052;55.602;38.096;2023-05-29T04:46:52;3.90;;;1.67;;
69779;SDS011;57052;55.602;38.096;2023-05-29T04:49:18;1.85;;;1.23;;
69779;SDS011;57052;55.602;38.096;2023-05-29T04:51:45;3.53;;;1.40;;
69779;SDS011;57052;55.602;38.096;2023-05-29T04:54:11;4.35;;;1.40;;
69779;SDS011;57052;55.602;38.096;2023-05-29T04:56:37;3.88;;;1.58;;
69779;SDS011;57052;55.602;38.096;2023-05-29T04:59:05;4.25;;;1.45;;
69779;SDS011;57052;55.602;38.096;2023-05-29T05:01:32;3.00;;;1.25;;
69779;SDS011;57052;55.602;38.096;2023-05-29T05:03:59;3.72;;;1.40;;
69779;SDS011;57052;55.602;38.096;2023-05-29T05:06:25;2.45;;;1.50;;
69779;SDS011;57052;55.602;38.096;2023-05-29T05:08:52;12.52;;;5.65;;
69779;SDS011;57052;55.602;38.096;2023-05-29T05:11:18;4.90;;;2.10;;
69779;SDS011;57052;55.602;38.096;2023-05-29T05:13:44;2.88;;;1.65;;
69779;SDS011;57052;55.602;38.096;2023-05-29T05:16:10;3.03;;;1.58;;
69779;SDS011;57052;55.602;38.096;2023-05-29T05:18:36;5.60;;;1.40;;
69779;SDS011;57052;55.602;38.096;2023-05-29T05:21:01;3.47;;;1.48;;
69779;SDS011;57052;55.602;38.096;2023-05-29T05:23:29;2.70;;;1.50;;
69779;SDS011;57052;55.602;38.096;2023-05-29T05:25:55;3.17;;;1.45;;
69779;SDS011;57052;55.602;38.096;2023-05-29T05:28:21;3.83;;;1.20;;
69779;SDS011;57052;55.602;38.096;2023-05-29T05:30:47;3.42;;;1.20;;
69779;SDS011;57052;55.602;38.096;2023-05-29T05:33:12;2.42;;;1.20;;
69779;SDS011;57052;55.602;38.096;2023-05-29T05:35:39;3.17;;;1.40;;
69779;SDS011;57052;55.602;38.096;2023-05-29T05:38:04;4.20;;;1.10;;
69779;SDS011;57052;55.602;38.096;2023-05-29T05:40:31;5.80;;;1.00;;
69779;SDS011;57052;55.602;38.096;2023-05-29T05:42:57;1.90;;;0.93;;
69779;SDS011;57052;55.602;38.096;2023-05-29T05:45:23;2.05;;;1.40;;
69779;SDS011;57052;55.602;38.096;2023-05-29T05:47:49;4.50;;;1.40;;
69779;SDS011;57052;55.602;38.096;2023-05-29T05:50:14;2.40;;;1.13;;
69779;SDS011;57052;55.602;38.096;2023-05-29T05:52:41;2.47;;;1.00;;
69779;SDS011;57052;55.602;38.096;2023-05-29T05:55:06;4.32;;;1.65;;
69779;SDS011;57052;55.602;38.096;2023-05-29T05:57:32;3.25;;;1.25;;
69779;SDS011;57052;55.602;38.096;2023-05-29T06:00:01;3.75;;;1.40;;
69779;SDS011;57052;55.602;38.096;2023-05-29T06:02:31;2.15;;;1.10;;
69779;SDS011;57052;55.602;38.096;2023-05-29T06:04:57;2.38;;;1.10;;
69779;SDS011;57052;55.602;38.096;2023-05-29T06:07:23;3.35;;;1.40;;
69779;SDS011;57052;55.602;38.096;2023-05-29T06:09:48;2.80;;;1.25;;
69779;SDS011;57052;55.602;38.096;2023-05-29T06:12:14;2.15;;;0.98;;
69779;SDS011;57052;55.602;38.096;2023-05-29T06:14:41;2.75;;;1.10;;
69779;SDS011;57052;55.602;38.096;2023-05-29T06:17:06;0.85;;;0.77;;
69779;SDS011;57052;55.602;38.096;2023-05-29T06:19:32;2.50;;;1.00;;
69779;SDS011;57052;55.602;38.096;2023-05-29T06:21:58;1.40;;;0.93;;
69779;SDS011;57052;55.602;38.096;2023-05-29T06:24:23;3.92;;;1.00;;
69779;SDS011;57052;55.602;38.096;2023-05-29T06:26:49;1.80;;;0.80;;
69779;SDS011;57052;55.602;38.096;2023-05-29T06:29:15;0.63;;;0.63;;
69779;SDS011;57052;55.602;38.096;2023-05-29T06:31:41;2.15;;;0.70;;
69779;SDS011;57052;55.602;38.096;2023-05-29T06:34:06;2.17;;;0.65;;
69779;SDS011;57052;55.602;38.096;2023-05-29T06:36:32;1.70;;;0.65;;
69779;SDS011;57052;55.602;38.096;2023-05-29T06:38:58;2.63;;;0.98;;
69779;SDS011;57052;55.602;38.096;2023-05-29T06:41:23;2.10;;;0.90;;
69779;SDS011;57052;55.602;38.096;2023-05-29T06:43:49;3.53;;;0.90;;
69779;SDS011;57052;55.602;38.096;2023-05-29T06:46:16;3.13;;;0.90;;
69779;SDS011;57052;55.602;38.096;2023-05-29T06:48:42;1.75;;;0.98;;
69779;SDS011;57052;55.602;38.096;2023-05-29T06:51:09;3.20;;;0.90;;
69779;SDS011;57052;55.602;38.096;2023-05-29T06:53:37;1.88;;;1.00;;
69779;SDS011;57052;55.602;38.096;2023-05-29T06:56:04;1.73;;;1.10;;
69779;SDS011;57052;55.602;38.096;2023-05-29T06:58:30;1.60;;;1.00;;
69779;SDS011;57052;55.602;38.096;2023-05-29T07:04:18;2.30;;;0.95;;
69779;SDS011;57052;55.602;38.096;2023-05-29T07:06:44;2.20;;;0.98;;
69779;SDS011;57052;55.602;38.096;2023-05-29T07:09:09;1.77;;;1.08;;
69779;SDS011;57052;55.602;38.096;2023-05-29T07:11:35;3.20;;;0.95;;
69779;SDS011;57052;55.602;38.096;2023-05-29T07:14:02;2.72;;;0.90;;
69779;SDS011;57052;55.602;38.096;2023-05-29T07:16:27;3.30;;;1.02;;
69779;SDS011;57052;55.602;38.096;2023-05-29T07:18:53;3.22;;;0.77;;
69779;SDS011;57052;55.602;38.096;2023-05-29T07:21:19;3.05;;;1.10;;
69779;SDS011;57052;55.602;38.096;2023-05-29T07:23:45;3.10;;;1.00;;
69779;SDS011;57052;55.602;38.096;2023-05-29T07:26:11;4.40;;;1.10;;
69779;SDS011;57052;55.602;38.096;2023-05-29T07:28:37;2.13;;;1.10;;
69779;SDS011;57052;55.602;38.096;2023-05-29T07:31:02;3.03;;;1.10;;
69779;SDS011;57052;55.602;38.096;2023-05-29T07:33:28;4.57;;;1.00;;
69779;SDS011;57052;55.602;38.096;2023-05-29T07:35:54;2.42;;;1.10;;
69779;SDS011;57052;55.602;38.096;2023-05-29T07:38:20;4.90;;;1.10;;
69779;SDS011;57052;55.602;38.096;2023-05-29T07:40:46;1.75;;;0.93;;
69779;SDS011;57052;55.602;38.096;2023-05-29T07:43:12;1.60;;;0.90;;
69779;SDS011;57052;55.602;38.096;2023-05-29T07:45:38;1.42;;;0.90;;
69779;SDS011;57052;55.602;38.096;2023-05-29T07:48:03;3.67;;;1.00;;
69779;SDS011;57052;55.602;38.096;2023-05-29T07:50:29;4.32;;;1.30;;
69779;SDS011;57052;55.602;38.096;2023-05-29T07:52:55;4.43;;;1.00;;
69779;SDS011;57052;55.602;38.096;2023-05-29T07:55:21;3.75;;;1.17;;
69779;SDS011;57052;55.602;38.096;2023-05-29T07:57:47;3.17;;;1.00;;
69779;SDS011;57052;55.602;38.096;2023-05-29T08:00:14;2.78;;;1.27;;
69779;SDS011;57052;55.602;38.096;2023-05-29T08:02:41;4.13;;;1.10;;
69779;SDS011;57052;55.602;38.096;2023-05-29T08:05:07;2.63;;;1.00;;
69779;SDS011;57052;55.602;38.096;2023-05-29T08:07:34;3.35;;;1.10;;
69779;SDS011;57052;55.602;38.096;2023-05-29T08:10:00;1.90;;;0.82;;
69779;SDS011;57052;55.602;38.096;2023-05-29T08:12:26;2.30;;;1.00;;
69779;SDS011;57052;55.602;38.096;2023-05-29T08:14:51;2.45;;;1.20;;
69779;SDS011;57052;55.602;38.096;2023-05-29T08:17:17;1.80;;;1.00;;
69779;SDS011;57052;55.602;38.096;2023-05-29T08:19:43;5.07;;;1.10;;
69779;SDS011;57052;55.602;38.096;2023-05-29T08:22:11;3.75;;;1.10;;
69779;SDS011;57052;55.602;38.096;2023-05-29T08:24:39;2.80;;;1.00;;
69779;SDS011;57052;55.602;38.096;2023-05-29T08:27:04;2.88;;;1.08;;
69779;SDS011;57052;55.602;38.096;2023-05-29T08:29:30;3.13;;;1.00;;
69779;SDS011;57052;55.602;38.096;2023-05-29T08:31:56;4.65;;;1.30;;
69779;SDS011;57052;55.602;38.096;2023-05-29T08:34:22;2.40;;;0.98;;
69779;SDS011;57052;55.602;38.096;2023-05-29T08:36:48;2.30;;;1.10;;
69779;SDS011;57052;55.602;38.096;2023-05-29T08:39:17;2.88;;;0.90;;
69779;SDS011;57052;55.602;38.096;2023-05-29T08:42:01;4.32;;;1.10;;
69779;SDS011;57052;55.602;38.096;2023-05-29T08:44:32;1.75;;;1.00;;
69779;SDS011;57052;55.602;38.096;2023-05-29T08:47:00;1.80;;;1.10;;
69779;SDS011;57052;55.602;38.096;2023-05-29T08:49:40;2.35;;;1.17;;
69779;SDS011;57052;55.602;38.096;2023-05-29T08:52:17;3.17;;;1.05;;
69779;SDS011;57052;55.602;38.096;2023-05-29T08:54:45;2.50;;;0.93;;
69779;SDS011;57052;55.602;38.096;2023-05-29T08:57:11;3.75;;;1.10;;
69779;SDS011;57052;55.602;38.096;2023-05-29T08:59:39;2.25;;;1.00;;
69779;SDS011;57052;55.602;38.096;2023-05-29T09:02:07;2.53;;;1.00;;
69779;SDS011;57052;55.602;38.096;2023-05-29T09:04:33;2.55;;;1.13;;
69779;SDS011;57052;55.602;38.096;2023-05-29T09:06:59;4.53;;;1.10;;
69779;SDS011;57052;55.602;38.096;2023-05-29T09:09:27;4.57;;;1.10;;
69779;SDS011;57052;55.602;38.096;2023-05-29T09:11:55;5.07;;;1.10;;
69779;SDS011;57052;55.602;38.096;2023-05-29T09:17:03;3.10;;;1.20;;
69779;SDS011;57052;55.602;38.096;2023-05-29T09:19:30;3.60;;;1.20;;
69779;SDS011;57052;55.602;38.096;2023-05-29T09:22:00;2.42;;;1.20;;
69779;SDS011;57052;55.602;38.096;2023-05-29T09:24:28;2.63;;;1.08;;
69779;SDS011;57052;55.602;38.096;2023-05-29T09:26:53;3.97;;;1.17;;
69779;SDS011;57052;55.602;38.096;2023-05-29T09:29:20;4.18;;;1.52;;
69779;SDS011;57052;55.602;38.096;2023-05-29T09:31:46;6.32;;;1.42;;
69779;SDS011;57052;55.602;38.096;2023-05-29T09:34:12;4.55;;;1.48;;
69779;SDS011;57052;55.602;38.096;2023-05-29T09:36:38;2.60;;;1.35;;
69779;SDS011;57052;55.602;38.096;2023-05-29T09:39:04;3.15;;;1.30;;
69779;SDS011;57052;55.602;38.096;2023-05-29T09:41:31;1.67;;;1.08;;
69779;SDS011;57052;55.602;38.096;2023-05-29T09:43:59;8.82;;;1.40;;
69779;SDS011;57052;55.602;38.096;2023-05-29T09:46:26;4.78;;;1.17;;
69779;SDS011;57052;55.602;38.096;2023-05-29T09:48:52;3.95;;;1.20;;
69779;SDS011;57052;55.602;38.096;2023-05-29T09:51:21;6.47;;;1.33;;
69779;SDS011;57052;55.602;38.096;2023-05-29T09:53:48;3.42;;;1.20;;
69779;SDS011;57052;55.602;38.096;2023-05-29T09:56:16;5.10;;;1.30;;
69779;SDS011;57052;55.602;38.096;2023-05-29T09:58:43;2.88;;;1.23;;
69779;SDS011;57052;55.602;38.096;2023-05-29T10:01:13;2.72;;;1.10;;
69779;SDS011;57052;55.602;38.096;2023-05-29T10:03:41;6.32;;;1.30;;
69779;SDS011;57052;55.602;38.096;2023-05-29T10:06:11;3.08;;;1.10;;
69779;SDS011;57052;55.602;38.096;2023-05-29T10:08:46;2.15;;;1.20;;
69779;SDS011;57052;55.602;38.096;2023-05-29T10:13:49;3.95;;;1.27;;
69779;SDS011;57052;55.602;38.096;2023-05-29T10:16:20;2.70;;;1.13;;
69779;SDS011;57052;55.602;38.096;2023-05-29T10:18:50;2.75;;;1.13;;
69779;SDS011;57052;55.602;38.096;2023-05-29T10:21:19;1.67;;;1.08;;
69779;SDS011;57052;55.602;38.096;2023-05-29T10:23:47;4.35;;;1.35;;
69779;SDS011;57052;55.602;38.096;2023-05-29T10:26:18;3.85;;;1.20;;
69779;SDS011;57052;55.602;38.096;2023-05-29T10:29:35;3.58;;;1.20;;
69779;SDS011;57052;55.602;38.096;2023-05-29T10:40:08;2.05;;;1.20;;
69779;SDS011;57052;55.602;38.096;2023-05-29T10:42:42;4.30;;;1.30;;
69779;SDS011;57052;55.602;38.096;2023-05-29T10:45:10;2.73;;;1.30;;
69779;SDS011;57052;55.602;38.096;2023-05-29T10:50:35;3.15;;;1.20;;
69779;SDS011;57052;55.602;38.096;2023-05-29T10:53:01;1.38;;;0.95;;
69779;SDS011;57052;55.602;38.096;2023-05-29T10:55:33;2.38;;;1.20;;
69779;SDS011;57052;55.602;38.096;2023-05-29T10:58:04;2.03;;;1.20;;
69779;SDS011;57052;55.602;38.096;2023-05-29T11:00:34;3.65;;;1.25;;
69779;SDS011;57052;55.602;38.096;2023-05-29T11:03:08;2.28;;;1.15;;
69779;SDS011;57052;55.602;38.096;2023-05-29T11:05:35;3.28;;;1.10;;
69779;SDS011;57052;55.602;38.096;2023-05-29T11:08:46;2.72;;;1.65;;
69779;SDS011;57052;55.602;38.096;2023-05-29T11:11:14;4.38;;;1.20;;
69779;SDS011;57052;55.602;38.096;2023-05-29T11:13:41;2.25;;;1.30;;
69779;SDS011;57052;55.602;38.096;2023-05-29T11:18:46;2.05;;;1.20;;
69779;SDS011;57052;55.602;38.096;2023-05-29T11:24:22;4.40;;;1.20;;
69779;SDS011;57052;55.602;38.096;2023-05-29T11:26:50;3.17;;;1.27;;
69779;SDS011;57052;55.602;38.096;2023-05-29T11:29:21;2.15;;;1.00;;
69779;SDS011;57052;55.602;38.096;2023-05-29T11:32:03;1.98;;;1.17;;
69779;SDS011;57052;55.602;38.096;2023-05-29T11:34:30;3.67;;;1.10;;
69779;SDS011;57052;55.602;38.096;2023-05-29T11:37:00;3.30;;;1.33;;
69779;SDS011;57052;55.602;38.096;2023-05-29T11:39:27;1.75;;;1.20;;
69779;SDS011;57052;55.602;38.096;2023-05-29T11:41:54;3.38;;;1.10;;
69779;SDS011;57052;55.602;38.096;2023-05-29T11:44:23;3.38;;;1.30;;
69779;SDS011;57052;55.602;38.096;2023-05-29T11:49:27;2.70;;;1.10;;
69779;SDS011;57052;55.602;38.096;2023-05-29T11:52:07;1.55;;;0.93;;
69779;SDS011;57052;55.602;38.096;2023-05-29T11:54:38;1.70;;;1.20;;
69779;SDS011;57052;55.602;38.096;2023-05-29T11:57:05;3.85;;;1.20;;
69779;SDS011;57052;55.602;38.096;2023-05-29T11:59:32;2.30;;;1.27;;
69779;SDS011;57052;55.602;38.096;2023-05-29T12:01:58;4.63;;;1.40;;
69779;SDS011;57052;55.602;38.096;2023-05-29T12:04:27;2.28;;;1.20;;
69779;SDS011;57052;55.602;38.096;2023-05-29T12:06:53;3.30;;;1.30;;
69779;SDS011;57052;55.602;38.096;2023-05-29T12:09:29;4.75;;;1.20;;
69779;SDS011;57052;55.602;38.096;2023-05-29T12:12:01;3.22;;;1.17;;
69779;SDS011;57052;55.602;38.096;2023-05-29T12:14:28;3.22;;;1.42;;
69779;SDS011;57052;55.602;38.096;2023-05-29T12:16:53;1.50;;;1.13;;
69779;SDS011;57052;55.602;38.096;2023-05-29T12:19:19;2.50;;;1.45;;
69779;SDS011;57052;55.602;38.096;2023-05-29T12:21:45;4.78;;;1.40;;
69779;SDS011;57052;55.602;38.096;2023-05-29T12:24:11;3.00;;;1.58;;
69779;SDS011;57052;55.602;38.096;2023-05-29T12:26:37;3.88;;;1.40;;
69779;SDS011;57052;55.602;38.096;2023-05-29T12:29:03;2.03;;;1.30;;
69779;SDS011;57052;55.602;38.096;2023-05-29T12:31:30;4.43;;;1.20;;
69779;SDS011;57052;55.602;38.096;2023-05-29T12:34:00;3.55;;;1.40;;
69779;SDS011;57052;55.602;38.096;2023-05-29T12:36:28;2.92;;;1.30;;
69779;SDS011;57052;55.602;38.096;2023-05-29T12:38:54;2.50;;;1.20;;
69779;SDS011;57052;55.602;38.096;2023-05-29T12:41:29;3.50;;;1.38;;
69779;SDS011;57052;55.602;38.096;2023-05-29T12:43:58;2.55;;;1.13;;
69779;SDS011;57052;55.602;38.096;2023-05-29T12:46:27;1.63;;;1.10;;
69779;SDS011;57052;55.602;38.096;2023-05-29T12:49:21;2.15;;;1.02;;
69779;SDS011;57052;55.602;38.096;2023-05-29T12:51:50;2.08;;;1.30;;
69779;SDS011;57052;55.602;38.096;2023-05-29T12:54:17;2.80;;;1.35;;
69779;SDS011;57052;55.602;38.096;2023-05-29T12:56:43;2.03;;;1.15;;
69779;SDS011;57052;55.602;38.096;2023-05-29T12:59:11;2.28;;;1.13;;
69779;SDS011;57052;55.602;38.096;2023-05-29T13:01:37;1.83;;;1.20;;
69779;SDS011;57052;55.602;38.096;2023-05-29T13:04:04;2.70;;;1.30;;
69779;SDS011;57052;55.602;38.096;2023-05-29T13:06:35;4.32;;;1.55;;
69779;SDS011;57052;55.602;38.096;2023-05-29T13:09:02;3.67;;;1.50;;
69779;SDS011;57052;55.602;38.096;2023-05-29T13:11:28;3.65;;;1.40;;
69779;SDS011;57052;55.602;38.096;2023-05-29T13:13:54;3.15;;;1.50;;
69779;SDS011;57052;55.602;38.096;2023-05-29T13:16:19;2.72;;;1.40;;
69779;SDS011;57052;55.602;38.096;2023-05-29T13:18:45;3.53;;;1.38;;
69779;SDS011;57052;55.602;38.096;2023-05-29T13:21:11;4.57;;;1.67;;
69779;SDS011;57052;55.602;38.096;2023-05-29T13:23:37;4.43;;;1.30;;
69779;SDS011;57052;55.602;38.096;2023-05-29T13:26:03;4.25;;;1.48;;
69779;SDS011;57052;55.602;38.096;2023-05-29T13:28:29;4.90;;;1.48;;
69779;SDS011;57052;55.602;38.096;2023-05-29T13:30:55;3.38;;;1.40;;
69779;SDS011;57052;55.602;38.096;2023-05-29T13:33:20;2.97;;;1.40;;
69779;SDS011;57052;55.602;38.096;2023-05-29T13:35:46;3.72;;;1.45;;
69779;SDS011;57052;55.602;38.096;2023-05-29T13:38:12;3.55;;;1.40;;
69779;SDS011;57052;55.602;38.096;2023-05-29T13:40:37;3.35;;;1.25;;
69779;SDS011;57052;55.602;38.096;2023-05-29T13:43:03;3.97;;;1.35;;
69779;SDS011;57052;55.602;38.096;2023-05-29T13:45:29;4.40;;;1.52;;
69779;SDS011;57052;55.602;38.096;2023-05-29T13:47:55;4.30;;;1.50;;
69779;SDS011;57052;55.602;38.096;2023-05-29T13:50:21;2.90;;;1.35;;
69779;SDS011;57052;55.602;38.096;2023-05-29T13:52:49;4.85;;;1.58;;
69779;SDS011;57052;55.602;38.096;2023-05-29T13:55:15;4.88;;;1.60;;
69779;SDS011;57052;55.602;38.096;2023-05-29T13:57:41;2.40;;;1.30;;
69779;SDS011;57052;55.602;38.096;2023-05-29T14:00:11;3.22;;;1.23;;
69779;SDS011;57052;55.602;38.096;2023-05-29T14:02:37;2.30;;;1.40;;
69779;SDS011;57052;55.602;38.096;2023-05-29T14:05:03;3.80;;;1.40;;
69779;SDS011;57052;55.602;38.096;2023-05-29T14:07:31;3.75;;;1.50;;
69779;SDS011;57052;55.602;38.096;2023-05-29T14:09:57;6.03;;;1.50;;
69779;SDS011;57052;55.602;38.096;2023-05-29T14:12:23;4.80;;;1.60;;
69779;SDS011;57052;55.602;38.096;2023-05-29T14:14:49;3.13;;;1.40;;
69779;SDS011;57052;55.602;38.096;2023-05-29T14:17:15;4.35;;;1.60;;
69779;SDS011;57052;55.602;38.096;2023-05-29T14:19:40;5.00;;;1.60;;
69779;SDS011;57052;55.602;38.096;2023-05-29T14:22:06;4.90;;;1.50;;
69779;SDS011;57052;55.602;38.096;2023-05-29T14:24:32;2.80;;;1.27;;
69779;SDS011;57052;55.602;38.096;2023-05-29T14:26:58;2.85;;;1.58;;
69779;SDS011;57052;55.602;38.096;2023-05-29T14:29:24;3.28;;;1.48;;
69779;SDS011;57052;55.602;38.096;2023-05-29T14:31:50;2.40;;;1.40;;
69779;SDS011;57052;55.602;38.096;2023-05-29T14:34:15;2.20;;;1.20;;
69779;SDS011;57052;55.602;38.096;2023-05-29T14:36:41;4.43;;;1.42;;
69779;SDS011;57052;55.602;38.096;2023-05-29T14:39:10;4.20;;;1.45;;
69779;SDS011;57052;55.602;38.096;2023-05-29T14:41:35;2.33;;;1.20;;
69779;SDS011;57052;55.602;38.096;2023-05-29T14:44:01;3.17;;;1.10;;
69779;SDS011;57052;55.602;38.096;2023-05-29T14:46:26;3.38;;;1.40;;
69779;SDS011;57052;55.602;38.096;2023-05-29T14:48:56;1.92;;;1.23;;
69779;SDS011;57052;55.602;38.096;2023-05-29T14:51:25;3.53;;;1.30;;
69779;SDS011;57052;55.602;38.096;2023-05-29T14:53:51;5.07;;;1.38;;
69779;SDS011;57052;55.602;38.096;2023-05-29T14:56:17;2.38;;;1.38;;
69779;SDS011;57052;55.602;38.096;2023-05-29T14:58:45;4.63;;;1.10;;
69779;SDS011;57052;55.602;38.096;2023-05-29T15:01:14;2.63;;;1.30;;
69779;SDS011;57052;55.602;38.096;2023-05-29T15:03:40;3.17;;;1.20;;
69779;SDS011;57052;55.602;38.096;2023-05-29T15:06:06;4.47;;;1.40;;